Time;durP1;ratioP1;P1;durP2;ratioP2;P2;SDS_P1;SDS_P2;PMS_P1;PMS_P2;Temp;Humidity;BMP_temperature;BMP_pressure;BME280_temperature;BME280_humidity;BME280_pressure;Samples;Min_cycle;Max_cycle;Signal;HPM_P1;HPM_P2
2021/06/04 00:02:25;;;;;;;45.40;40.55;;;;;;;;;;5034100;28;20052;-64
2021/06/04 00:05:11;;;;;;;42.42;37.88;;;;;;;;;;5034046;28;20420;-64
2021/06/04 00:07:56;;;;;;;46.38;41.35;;;;;;;;;;5033727;28;20049;-64
2021/06/04 00:10:52;;;;;;;41.42;37.13;;;;;;;;;;5033621;28;20096;-64
2021/06/04 00:13:44;;;;;;;50.03;43.28;;;;;;;;;;5033962;28;20049;-64
2021/06/04 00:16:59;;;;;;;56.22;44.88;;;;;;;;;;5033865;28;20049;-64
2021/06/04 00:19:44;;;;;;;45.80;38.95;;;;;;;;;;5030524;28;20054;-64
2021/06/04 00:22:30;;;;;;;46.15;40.88;;;;;;;;;;5033756;28;20503;-64
2021/06/04 00:25:15;;;;;;;45.15;40.25;;;;;;;;;;5033555;28;20072;-64
2021/06/04 00:28:01;;;;;;;55.63;45.58;;;;;;;;;;5033305;28;20056;-64
2021/06/04 00:30:46;;;;;;;51.60;41.78;;;;;;;;;;5033156;28;20492;-64
2021/06/04 00:33:32;;;;;;;55.05;45.42;;;;;;;;;;5033334;28;20065;-64
2021/06/04 00:36:17;;;;;;;54.85;44.83;;;;;;;;;;5033144;28;20049;-64
2021/06/04 00:39:03;;;;;;;59.85;47.63;;;;;;;;;;5033263;28;20500;-64
2021/06/04 00:41:50;;;;;;;65.78;50.85;;;;;;;;;;5033089;28;20103;-64
2021/06/04 00:44:35;;;;;;;65.53;49.08;;;;;;;;;;5032991;28;20053;-64
2021/06/04 00:47:22;;;;;;;47.38;40.50;;;;;;;;;;5033082;28;20453;-64
2021/06/04 00:50:14;;;;;;;52.53;44.83;;;;;;;;;;5032787;28;20045;-64
2021/06/04 00:52:59;;;;;;;62.22;47.25;;;;;;;;;;5031164;28;20064;-64
2021/06/04 00:55:45;;;;;;;63.45;49.10;;;;;;;;;;5032050;28;20156;-64
2021/06/04 00:58:38;;;;;;;56.72;44.20;;;;;;;;;;5018063;28;20107;-64
2021/06/04 01:01:25;;;;;;;59.88;45.35;;;;;;;;;;5031785;28;20060;-64
2021/06/04 01:04:15;;;;;;;59.60;45.28;;;;;;;;;;5031878;28;20053;-64
2021/06/04 01:07:08;;;;;;;62.92;46.35;;;;;;;;;;5031600;28;20056;-64
2021/06/04 01:10:02;;;;;;;61.83;47.30;;;;;;;;;;5031650;28;20041;-64
2021/06/04 01:12:56;;;;;;;58.85;45.97;;;;;;;;;;5031787;28;20063;-64
2021/06/04 01:15:55;;;;;;;61.13;46.72;;;;;;;;;;5018563;28;20130;-64
2021/06/04 01:18:41;;;;;;;72.95;50.95;;;;;;;;;;5031511;28;20049;-64
2021/06/04 01:21:33;;;;;;;71.32;51.88;;;;;;;;;;5032338;28;20060;-64
2021/06/04 01:24:25;;;;;;;59.13;46.72;;;;;;;;;;5031849;28;20053;-64
2021/06/04 01:27:12;;;;;;;67.43;48.55;;;;;;;;;;5032256;28;20455;-64
2021/06/04 01:30:03;;;;;;;62.45;46.45;;;;;;;;;;5017561;28;20068;-64
2021/06/04 01:32:50;;;;;;;74.25;54.15;;;;;;;;;;5032463;28;20049;-64
2021/06/04 01:35:41;;;;;;;80.03;54.97;;;;;;;;;;5031420;28;20064;-64
2021/06/04 01:38:32;;;;;;;80.47;55.08;;;;;;;;;;5031396;28;20060;-64
2021/06/04 01:41:20;;;;;;;70.73;53.07;;;;;;;;;;5017665;28;20057;-63
2021/06/04 01:44:12;;;;;;;70.40;53.03;;;;;;;;;;5017976;28;20049;-63
2021/06/04 01:47:02;;;;;;;64.50;49.50;;;;;;;;;;5017436;28;20056;-65
2021/06/04 01:49:49;;;;;;;71.65;53.67;;;;;;;;;;5031109;28;20052;-63
2021/06/04 01:52:37;;;;;;;69.68;52.13;;;;;;;;;;5031328;28;20180;-63
2021/06/04 01:55:27;;;;;;;70.38;51.45;;;;;;;;;;5031355;28;20045;-63
2021/06/04 01:58:17;;;;;;;79.40;54.70;;;;;;;;;;5017663;28;20507;-64
2021/06/04 02:01:24;;;;;;;65.32;50.28;;;;;;;;;;5017426;28;20050;-64
2021/06/04 02:04:13;;;;;;;77.68;54.00;;;;;;;;;;5034349;28;20503;-63
2021/06/04 02:07:07;;;;;;;75.57;55.70;;;;;;;;;;5038850;28;20128;-64
2021/06/04 02:09:52;;;;;;;76.85;54.13;;;;;;;;;;5038267;28;20057;-64
2021/06/04 02:12:44;;;;;;;84.25;58.45;;;;;;;;;;5039037;28;20063;-64
2021/06/04 02:15:40;;;;;;;83.82;59.00;;;;;;;;;;5038337;28;20053;-64
2021/06/04 02:18:57;;;;;;;77.45;54.63;;;;;;;;;;5024669;28;20411;-64
2021/06/04 02:21:56;;;;;;;75.32;52.65;;;;;;;;;;5024663;28;20423;-64
2021/06/04 02:24:45;;;;;;;83.25;55.05;;;;;;;;;;5037520;28;20131;-64
2021/06/04 02:27:31;;;;;;;100.18;62.60;;;;;;;;;;5038145;28;20044;-64
2021/06/04 02:30:36;;;;;;;104.38;62.78;;;;;;;;;;5037020;28;20053;-64
2021/06/04 02:33:23;;;;;;;109.03;65.60;;;;;;;;;;5038309;28;20500;-64
2021/06/04 02:36:14;;;;;;;104.95;64.53;;;;;;;;;;5037592;28;20057;-63
2021/06/04 02:39:04;;;;;;;103.25;64.35;;;;;;;;;;5038053;28;20049;-64
2021/06/04 02:41:56;;;;;;;103.78;64.45;;;;;;;;;;5037545;28;20057;-64
2021/06/04 02:44:49;;;;;;;76.10;54.65;;;;;;;;;;5036984;28;20506;-64
2021/06/04 02:47:37;;;;;;;82.40;58.00;;;;;;;;;;5036897;28;20606;-63
2021/06/04 02:50:41;;;;;;;80.65;57.22;;;;;;;;;;5037080;28;20049;-64
2021/06/04 02:53:28;;;;;;;81.28;55.67;;;;;;;;;;5036966;28;20045;-64
2021/06/04 02:56:15;;;;;;;86.38;59.97;;;;;;;;;;5022753;28;20052;-64
2021/06/04 02:59:05;;;;;;;95.07;61.97;;;;;;;;;;5036071;28;20184;-64
2021/06/04 03:02:00;;;;;;;83.68;60.10;;;;;;;;;;5037904;28;20053;-64
2021/06/04 03:04:47;;;;;;;89.72;61.13;;;;;;;;;;5037150;28;20050;-64
2021/06/04 03:07:33;;;;;;;84.70;60.38;;;;;;;;;;5038647;28;20041;-63
2021/06/04 03:10:34;;;;;;;85.95;60.63;;;;;;;;;;5037917;28;20050;-64
2021/06/04 03:13:25;;;;;;;81.22;58.05;;;;;;;;;;5037049;28;20060;-64
2021/06/04 03:16:13;;;;;;;65.07;49.15;;;;;;;;;;5034320;28;20058;-64
2021/06/04 03:19:03;;;;;;;79.55;57.92;;;;;;;;;;5034968;28;20060;-64
2021/06/04 03:21:54;;;;;;;80.80;57.03;;;;;;;;;;5033609;28;20111;-63
2021/06/04 03:24:41;;;;;;;90.80;64.05;;;;;;;;;;5033588;28;20054;-64
2021/06/04 03:27:30;;;;;;;92.43;63.80;;;;;;;;;;5033442;28;20523;-64
2021/06/04 03:30:16;;;;;;;89.38;62.72;;;;;;;;;;5034367;28;20123;-64
2021/06/04 03:33:02;;;;;;;98.55;62.35;;;;;;;;;;5034421;28;20107;-63
2021/06/04 03:35:48;;;;;;;94.00;60.70;;;;;;;;;;5033377;28;20052;-63
2021/06/04 03:38:33;;;;;;;88.10;58.53;;;;;;;;;;5034296;28;20563;-63
2021/06/04 03:41:22;;;;;;;92.97;61.83;;;;;;;;;;5033075;28;20046;-64
2021/06/04 03:44:10;;;;;;;73.45;53.47;;;;;;;;;;5034425;28;20096;-63
2021/06/04 03:46:56;;;;;;;62.83;49.45;;;;;;;;;;5034181;28;20099;-63
2021/06/04 03:49:42;;;;;;;57.00;45.38;;;;;;;;;;5033834;28;20514;-63
2021/06/04 03:52:29;;;;;;;82.90;58.75;;;;;;;;;;5034543;28;20422;-63
2021/06/04 03:55:15;;;;;;;81.60;55.72;;;;;;;;;;5034651;28;20120;-63
2021/06/04 03:58:01;;;;;;;65.72;50.65;;;;;;;;;;5034384;28;20045;-64
2021/06/04 04:00:48;;;;;;;72.53;54.33;;;;;;;;;;5033966;28;20047;-64
2021/06/04 04:03:35;;;;;;;78.85;57.75;;;;;;;;;;5034083;28;20132;-64
2021/06/04 04:06:20;;;;;;;77.30;55.47;;;;;;;;;;5033819;28;20050;-64
2021/06/04 04:09:06;;;;;;;112.63;65.75;;;;;;;;;;5033901;28;20152;-64
2021/06/04 04:11:51;;;;;;;89.10;59.20;;;;;;;;;;5033849;28;20048;-64
2021/06/04 04:14:37;;;;;;;97.90;63.72;;;;;;;;;;5033348;28;20042;-63
2021/06/04 04:17:23;;;;;;;100.72;61.55;;;;;;;;;;5033533;28;20500;-63
2021/06/04 04:20:08;;;;;;;72.65;52.17;;;;;;;;;;5033807;28;20056;-63
2021/06/04 04:22:54;;;;;;;66.63;54.13;;;;;;;;;;5033579;28;20081;-63
2021/06/04 04:25:41;;;;;;;114.80;70.30;;;;;;;;;;5033208;28;20056;-64
2021/06/04 04:28:28;;;;;;;113.68;73.10;;;;;;;;;;5033187;28;20045;-64
2021/06/04 04:31:17;;;;;;;91.30;65.97;;;;;;;;;;5033316;28;20042;-64
2021/06/04 04:34:02;;;;;;;80.68;59.85;;;;;;;;;;5033491;28;20045;-63
2021/06/04 04:36:48;;;;;;;94.40;63.47;;;;;;;;;;5033284;28;20052;-64
2021/06/04 04:39:35;;;;;;;94.85;66.53;;;;;;;;;;5032979;28;20455;-64
2021/06/04 04:42:21;;;;;;;73.80;56.88;;;;;;;;;;5033332;28;20199;-64
2021/06/04 04:45:26;;;;;;;71.38;56.10;;;;;;;;;;5031992;28;20508;-64
2021/06/04 04:48:12;;;;;;;84.68;62.10;;;;;;;;;;5032618;28;20046;-64
2021/06/04 04:50:58;;;;;;;103.13;71.13;;;;;;;;;;5013151;28;20072;-64
2021/06/04 04:53:43;;;;;;;100.10;69.13;;;;;;;;;;5013305;28;20045;-64
2021/06/04 04:56:30;;;;;;;101.78;70.32;;;;;;;;;;5013094;28;20132;-64
2021/06/04 04:59:15;;;;;;;95.90;68.00;;;;;;;;;;5013338;28;20057;-64
2021/06/04 05:02:01;;;;;;;94.53;67.85;;;;;;;;;;5013373;28;20092;-64
2021/06/04 05:04:46;;;;;;;82.82;63.15;;;;;;;;;;5013089;28;20500;-63
2021/06/04 05:07:31;;;;;;;74.00;59.97;;;;;;;;;;5013149;28;20077;-63
2021/06/04 05:10:17;;;;;;;90.85;66.25;;;;;;;;;;5031357;28;20037;-64
2021/06/04 05:13:03;;;;;;;99.10;67.97;;;;;;;;;;5032865;28;20042;-64
2021/06/04 05:15:48;;;;;;;104.35;71.95;;;;;;;;;;5032775;28;20055;-64
2021/06/04 05:18:34;;;;;;;89.05;67.78;;;;;;;;;;5032475;28;20049;-64
2021/06/04 05:21:19;;;;;;;90.80;68.32;;;;;;;;;;5032267;28;20052;-64
2021/06/04 05:24:05;;;;;;;96.70;69.53;;;;;;;;;;5032553;28;20388;-64
2021/06/04 05:26:51;;;;;;;91.60;67.28;;;;;;;;;;5032312;28;20503;-64
2021/06/04 05:29:37;;;;;;;89.07;67.68;;;;;;;;;;5032313;28;20144;-64
2021/06/04 05:32:22;;;;;;;89.13;68.13;;;;;;;;;;5032357;28;20522;-64
2021/06/04 05:35:07;;;;;;;92.70;68.55;;;;;;;;;;5032368;28;20083;-64
2021/06/04 05:37:53;;;;;;;84.53;64.72;;;;;;;;;;5032121;28;20049;-63
2021/06/04 05:40:39;;;;;;;84.93;61.35;;;;;;;;;;5032861;28;20079;-63
2021/06/04 05:43:26;;;;;;;80.07;59.97;;;;;;;;;;5032652;28;20662;-64
2021/06/04 05:46:13;;;;;;;75.97;57.70;;;;;;;;;;5032497;28;20392;-63
2021/06/04 05:48:58;;;;;;;80.10;59.15;;;;;;;;;;5032550;28;20056;-64
2021/06/04 05:51:43;;;;;;;80.80;58.75;;;;;;;;;;5032096;28;20048;-64
2021/06/04 05:54:29;;;;;;;81.18;59.30;;;;;;;;;;5032025;28;20037;-64
2021/06/04 05:57:15;;;;;;;74.68;56.65;;;;;;;;;;5031811;28;20187;-63
2021/06/04 06:00:01;;;;;;;76.47;56.75;;;;;;;;;;5031763;28;20061;-64
2021/06/04 06:02:46;;;;;;;71.82;52.80;;;;;;;;;;5032157;28;20136;-64
2021/06/04 06:05:31;;;;;;;70.55;51.15;;;;;;;;;;5030965;28;20057;-64
2021/06/04 06:08:17;;;;;;;66.07;49.65;;;;;;;;;;5031393;28;20041;-64
2021/06/04 06:11:02;;;;;;;68.18;52.35;;;;;;;;;;5031596;28;20056;-64
2021/06/04 06:13:48;;;;;;;69.30;52.83;;;;;;;;;;5031776;28;20045;-64
2021/06/04 06:16:33;;;;;;;58.70;47.20;;;;;;;;;;5031924;28;20407;-64
2021/06/04 06:19:19;;;;;;;65.55;46.00;;;;;;;;;;5031633;28;20622;-64
2021/06/04 06:22:05;;;;;;;58.15;45.00;;;;;;;;;;5031865;28;20551;-64
2021/06/04 06:24:51;;;;;;;57.90;43.22;;;;;;;;;;5031582;28;20073;-63
2021/06/04 06:27:37;;;;;;;56.47;43.13;;;;;;;;;;5031747;28;20042;-64
2021/06/04 06:30:29;;;;;;;54.10;43.00;;;;;;;;;;5031505;28;20041;-64
2021/06/04 06:33:14;;;;;;;51.30;41.78;;;;;;;;;;5031826;28;20148;-64
2021/06/04 06:36:01;;;;;;;54.10;41.55;;;;;;;;;;5031690;28;20060;-64
2021/06/04 06:38:50;;;;;;;61.05;40.50;;;;;;;;;;5031537;28;20056;-64
2021/06/04 06:41:35;;;;;;;50.33;38.95;;;;;;;;;;5031485;28;20049;-64
2021/06/04 06:44:21;;;;;;;46.65;39.67;;;;;;;;;;5031570;28;20494;-64
2021/06/04 06:47:08;;;;;;;44.88;37.97;;;;;;;;;;5031498;28;20050;-64
2021/06/04 06:49:53;;;;;;;50.28;37.45;;;;;;;;;;5032236;28;20041;-64
2021/06/04 06:52:38;;;;;;;45.22;37.30;;;;;;;;;;5035330;28;20053;-64
2021/06/04 06:55:24;;;;;;;42.00;35.67;;;;;;;;;;5035188;28;20491;-64
2021/06/04 06:58:10;;;;;;;44.25;35.13;;;;;;;;;;5034904;28;20518;-64
2021/06/04 07:00:55;;;;;;;41.08;33.65;;;;;;;;;;5034864;28;20056;-64
2021/06/04 07:03:41;;;;;;;42.05;34.28;;;;;;;;;;5035056;28;20107;-64
2021/06/04 07:06:28;;;;;;;40.55;35.17;;;;;;;;;;5035135;28;20565;-64
2021/06/04 07:09:15;;;;;;;42.10;32.80;;;;;;;;;;5034923;28;20132;-63
2021/06/04 07:12:00;;;;;;;36.90;29.58;;;;;;;;;;5034956;28;20064;-64
2021/06/04 07:14:45;;;;;;;38.53;32.80;;;;;;;;;;5035055;28;20052;-64
2021/06/04 07:17:30;;;;;;;35.78;31.15;;;;;;;;;;5033858;28;20072;-64
2021/06/04 07:20:17;;;;;;;33.90;29.75;;;;;;;;;;5034422;28;20045;-64
2021/06/04 07:23:02;;;;;;;36.25;29.88;;;;;;;;;;5034888;28;20049;-63
2021/06/04 07:25:54;;;;;;;31.77;28.35;;;;;;;;;;5034702;28;20053;-64
2021/06/04 07:28:43;;;;;;;34.30;30.45;;;;;;;;;;5034496;28;20483;-64
2021/06/04 07:31:30;;;;;;;41.22;31.20;;;;;;;;;;5034540;28;20128;-64
2021/06/04 07:34:15;;;;;;;34.90;30.02;;;;;;;;;;5034342;28;20041;-64
2021/06/04 07:37:04;;;;;;;33.33;29.10;;;;;;;;;;5034295;28;20219;-64
2021/06/04 07:39:50;;;;;;;33.50;29.23;;;;;;;;;;5034121;28;20057;-64
2021/06/04 07:42:36;;;;;;;33.17;29.27;;;;;;;;;;5034236;28;20491;-64
2021/06/04 07:45:33;;;;;;;30.88;27.40;;;;;;;;;;5034305;28;20049;-64
2021/06/04 07:48:19;;;;;;;37.90;27.15;;;;;;;;;;5034165;28;20059;-64
2021/06/04 07:51:05;;;;;;;33.72;28.33;;;;;;;;;;5032964;28;20064;-64
2021/06/04 07:53:51;;;;;;;37.85;30.25;;;;;;;;;;5034124;28;20056;-64
2021/06/04 07:56:37;;;;;;;34.45;30.67;;;;;;;;;;5033824;28;20056;-64
2021/06/04 07:59:23;;;;;;;37.33;29.48;;;;;;;;;;5033911;28;20192;-64
2021/06/04 08:02:08;;;;;;;32.97;28.40;;;;;;;;;;5033751;28;20057;-64
2021/06/04 08:04:53;;;;;;;31.90;27.05;;;;;;;;;;5033970;28;20572;-64
2021/06/04 08:07:39;;;;;;;31.48;28.10;;;;;;;;;;5033874;28;20055;-64
2021/06/04 08:10:24;;;;;;;30.60;26.80;;;;;;;;;;5033565;28;20041;-64
2021/06/04 08:13:13;;;;;;;31.38;27.63;;;;;;;;;;5034430;28;20073;-64
2021/06/04 08:16:00;;;;;;;32.35;26.77;;;;;;;;;;5033775;28;20052;-64
2021/06/04 08:18:52;;;;;;;34.22;27.42;;;;;;;;;;5033758;28;20500;-64
2021/06/04 08:21:40;;;;;;;28.38;24.25;;;;;;;;;;5033559;28;20414;-64
2021/06/04 08:24:29;;;;;;;25.08;22.48;;;;;;;;;;5033671;28;20049;-64
2021/06/04 08:27:15;;;;;;;28.90;24.40;;;;;;;;;;5033614;28;20042;-64
2021/06/04 08:30:00;;;;;;;28.40;25.23;;;;;;;;;;5033374;28;20053;-64
2021/06/04 08:32:46;;;;;;;30.80;24.77;;;;;;;;;;5033541;28;20385;-64
2021/06/04 08:35:31;;;;;;;28.67;25.58;;;;;;;;;;5033623;28;20042;-64
2021/06/04 08:38:17;;;;;;;33.45;27.20;;;;;;;;;;5033304;28;20049;-64
2021/06/04 08:41:03;;;;;;;30.40;27.05;;;;;;;;;;5033126;28;20073;-64
2021/06/04 08:44:07;;;;;;;33.90;26.17;;;;;;;;;;5032479;28;20057;-64
2021/06/04 08:46:54;;;;;;;28.83;25.10;;;;;;;;;;5033366;28;20100;-64
2021/06/04 08:49:54;;;;;;;28.10;22.05;;;;;;;;;;5032966;28;20041;-63
2021/06/04 08:52:41;;;;;;;27.95;24.35;;;;;;;;;;5033066;28;20041;-64
2021/06/04 08:55:38;;;;;;;31.42;21.45;;;;;;;;;;5032086;28;20045;-64
2021/06/04 08:58:42;;;;;;;23.42;21.10;;;;;;;;;;5031647;28;20520;-64
2021/06/04 09:01:29;;;;;;;23.13;20.50;;;;;;;;;;5032767;28;20045;-64
2021/06/04 09:04:16;;;;;;;21.65;17.63;;;;;;;;;;5032861;28;20050;-64
2021/06/04 09:07:04;;;;;;;16.95;13.55;;;;;;;;;;5017987;28;20052;-64
2021/06/04 09:10:09;;;;;;;19.35;16.77;;;;;;;;;;5031656;28;20096;-64
2021/06/04 09:12:55;;;;;;;19.35;17.35;;;;;;;;;;5032020;28;20120;-64
2021/06/04 09:15:41;;;;;;;17.35;14.05;;;;;;;;;;5031728;28;20048;-64
2021/06/04 09:18:33;;;;;;;16.80;14.65;;;;;;;;;;5032674;28;20053;-64
2021/06/04 09:21:23;;;;;;;15.23;10.55;;;;;;;;;;5017514;28;20050;-64
2021/06/04 09:24:13;;;;;;;37.10;13.07;;;;;;;;;;5031733;28;20380;-64
2021/06/04 09:26:59;;;;;;;15.98;12.25;;;;;;;;;;5031087;28;20499;-64
2021/06/04 09:29:46;;;;;;;13.35;10.20;;;;;;;;;;5032324;28;20049;-64
2021/06/04 09:32:32;;;;;;;14.05;11.32;;;;;;;;;;5031108;28;20057;-63
2021/06/04 09:35:18;;;;;;;15.70;12.13;;;;;;;;;;5031582;28;20496;-64
2021/06/04 09:38:26;;;;;;;15.60;12.40;;;;;;;;;;5030110;28;20202;-64
2021/06/04 09:41:21;;;;;;;18.38;16.52;;;;;;;;;;5015309;28;20041;-64
2021/06/04 09:44:11;;;;;;;18.65;16.60;;;;;;;;;;5025279;28;20064;-64
2021/06/04 09:46:58;;;;;;;15.90;14.02;;;;;;;;;;5030319;28;20492;-64
2021/06/04 09:49:44;;;;;;;15.88;13.63;;;;;;;;;;5028423;28;20467;-64
2021/06/04 09:52:32;;;;;;;13.13;11.48;;;;;;;;;;5031834;28;20153;-64
2021/06/04 09:55:25;;;;;;;41.58;12.73;;;;;;;;;;5032140;28;20171;-64
2021/06/04 09:58:13;;;;;;;12.63;11.18;;;;;;;;;;5031892;28;20066;-64
2021/06/04 10:01:03;;;;;;;12.38;9.70;;;;;;;;;;5031644;28;20045;-64
2021/06/04 10:03:59;;;;;;;10.60;9.50;;;;;;;;;;5032012;28;20049;-64
2021/06/04 10:06:49;;;;;;;9.25;7.82;;;;;;;;;;5030765;28;20148;-64
2021/06/04 10:09:35;;;;;;;10.95;7.72;;;;;;;;;;5031764;28;20056;-64
2021/06/04 10:12:32;;;;;;;8.20;6.28;;;;;;;;;;5030918;28;20049;-64
2021/06/04 10:15:31;;;;;;;7.30;4.60;;;;;;;;;;5030680;28;20053;-64
2021/06/04 10:18:32;;;;;;;8.57;6.32;;;;;;;;;;5030833;28;20045;-64
2021/06/04 10:21:26;;;;;;;12.13;10.82;;;;;;;;;;5031638;28;20049;-63
2021/06/04 10:24:31;;;;;;;12.93;10.75;;;;;;;;;;5033864;28;20049;-63
2021/06/04 10:27:32;;;;;;;13.32;9.98;;;;;;;;;;5034843;28;20053;-64
2021/06/04 10:30:21;;;;;;;10.32;9.32;;;;;;;;;;5034624;28;20045;-64
2021/06/04 10:33:13;;;;;;;13.45;10.35;;;;;;;;;;5035742;28;20049;-63
2021/06/04 10:35:59;;;;;;;10.57;9.60;;;;;;;;;;5034495;28;20049;-63
2021/06/04 10:38:46;;;;;;;10.32;8.45;;;;;;;;;;5035520;28;20049;-63
2021/06/04 10:41:47;;;;;;;11.73;8.80;;;;;;;;;;5035278;28;20550;-63
2021/06/04 10:44:39;;;;;;;11.50;10.40;;;;;;;;;;5035559;28;20057;-64
2021/06/04 10:47:43;;;;;;;12.25;10.55;;;;;;;;;;5035273;28;20049;-64
2021/06/04 10:50:37;;;;;;;12.38;11.02;;;;;;;;;;5035146;28;20049;-64
2021/06/04 10:53:41;;;;;;;13.48;10.15;;;;;;;;;;5035378;28;20127;-64
2021/06/04 10:56:29;;;;;;;15.48;12.27;;;;;;;;;;5034990;28;20411;-64
2021/06/04 10:59:21;;;;;;;19.95;14.50;;;;;;;;;;5035115;28;20128;-64
2021/06/04 11:02:25;;;;;;;15.20;13.40;;;;;;;;;;5035012;28;20045;-63
2021/06/04 11:05:29;;;;;;;16.30;13.32;;;;;;;;;;5034901;28;20134;-63
2021/06/04 11:08:26;;;;;;;15.40;12.85;;;;;;;;;;5034953;28;20049;-64
2021/06/04 11:11:17;;;;;;;18.30;10.60;;;;;;;;;;5034570;28;20167;-64
2021/06/04 11:14:03;;;;;;;11.60;9.80;;;;;;;;;;5035003;28;20108;-64
2021/06/04 11:16:50;;;;;;;10.13;7.65;;;;;;;;;;5034657;28;20406;-64
2021/06/04 11:19:42;;;;;;;9.93;7.97;;;;;;;;;;5033341;28;20060;-64
2021/06/04 11:22:38;;;;;;;13.35;9.52;;;;;;;;;;5033820;28;20076;-64
2021/06/04 11:25:24;;;;;;;14.50;9.13;;;;;;;;;;5033598;28;20056;-64
2021/06/04 11:28:27;;;;;;;7.80;6.65;;;;;;;;;;5034387;28;20068;-64
2021/06/04 11:31:19;;;;;;;7.75;6.55;;;;;;;;;;5034241;28;20077;-64
2021/06/04 11:34:06;;;;;;;12.70;11.02;;;;;;;;;;5033290;28;20046;-64
2021/06/04 11:36:52;;;;;;;14.75;12.02;;;;;;;;;;5032739;28;20056;-64
2021/06/04 11:39:38;;;;;;;15.80;11.85;;;;;;;;;;5033164;28;20060;-64
2021/06/04 11:42:37;;;;;;;13.00;10.98;;;;;;;;;;5033131;28;20419;-64
2021/06/04 11:45:24;;;;;;;11.35;9.38;;;;;;;;;;5034353;28;20056;-64
2021/06/04 11:48:21;;;;;;;12.35;10.88;;;;;;;;;;5033153;28;20184;-63
2021/06/04 11:51:15;;;;;;;15.70;14.02;;;;;;;;;;5033876;28;20052;-64
2021/06/04 11:54:33;;;;;;;15.60;13.02;;;;;;;;;;5034448;28;20052;-64
2021/06/04 11:57:44;;;;;;;19.17;17.08;;;;;;;;;;5024662;28;20061;-64
2021/06/04 12:00:31;;;;;;;19.13;17.23;;;;;;;;;;5033978;28;20150;-64
2021/06/04 12:03:20;;;;;;;19.75;17.63;;;;;;;;;;5034032;28;20049;-64
2021/06/04 12:06:23;;;;;;;21.52;19.27;;;;;;;;;;5033102;28;20482;-64
2021/06/04 12:09:39;;;;;;;22.58;19.20;;;;;;;;;;5033715;28;20053;-64
2021/06/04 12:12:25;;;;;;;22.40;19.98;;;;;;;;;;5032077;28;20049;-64
2021/06/04 12:15:10;;;;;;;21.55;18.38;;;;;;;;;;5033672;28;20052;-64
2021/06/04 12:17:58;;;;;;;18.55;16.15;;;;;;;;;;5033414;28;20406;-64
2021/06/04 12:20:43;;;;;;;22.83;19.08;;;;;;;;;;5032413;28;20215;-64
2021/06/04 12:23:45;;;;;;;17.83;15.90;;;;;;;;;;5033328;28;20046;-64
2021/06/04 12:26:31;;;;;;;17.73;15.50;;;;;;;;;;5033212;28;20172;-64
2021/06/04 12:29:30;;;;;;;18.75;15.05;;;;;;;;;;5033412;28;20120;-64
2021/06/04 12:32:16;;;;;;;17.77;13.82;;;;;;;;;;5033492;28;20048;-64
2021/06/04 12:35:02;;;;;;;23.15;16.08;;;;;;;;;;5033511;28;20049;-64
2021/06/04 12:37:48;;;;;;;21.63;16.13;;;;;;;;;;5033520;28;20056;-64
2021/06/04 12:40:34;;;;;;;30.88;16.88;;;;;;;;;;5032127;28;20053;-63
2021/06/04 12:43:20;;;;;;;20.38;14.38;;;;;;;;;;5033352;28;20053;-64
2021/06/04 12:46:12;;;;;;;15.00;12.77;;;;;;;;;;5033383;28;20042;-64
2021/06/04 12:49:00;;;;;;;18.98;14.82;;;;;;;;;;5032483;28;20052;-64
2021/06/04 12:51:46;;;;;;;15.38;13.88;;;;;;;;;;5032293;28;20052;-64
2021/06/04 12:54:31;;;;;;;15.80;13.90;;;;;;;;;;5033275;28;20084;-64
2021/06/04 12:57:20;;;;;;;18.50;15.48;;;;;;;;;;5032811;28;20065;-64
2021/06/04 13:00:15;;;;;;;17.15;14.07;;;;;;;;;;5032704;28;20052;-64
2021/06/04 13:03:10;;;;;;;15.60;12.10;;;;;;;;;;5032970;28;20069;-64
2021/06/04 13:05:56;;;;;;;15.02;11.13;;;;;;;;;;5032852;28;20048;-64
2021/06/04 13:08:46;;;;;;;15.30;12.68;;;;;;;;;;5032770;28;20421;-64
2021/06/04 13:11:38;;;;;;;13.07;10.98;;;;;;;;;;5028521;28;20056;-64
2021/06/04 13:14:33;;;;;;;12.55;11.27;;;;;;;;;;5017471;28;20088;-64
2021/06/04 13:17:24;;;;;;;14.43;12.63;;;;;;;;;;5018510;28;20056;-64
2021/06/04 13:20:19;;;;;;;13.00;11.70;;;;;;;;;;5032154;28;20076;-64
2021/06/04 13:23:05;;;;;;;14.23;12.80;;;;;;;;;;5012547;28;20053;-64
2021/06/04 13:26:25;;;;;;;15.80;13.35;;;;;;;;;;5022717;28;20104;-64
2021/06/04 13:29:13;;;;;;;14.20;12.90;;;;;;;;;;5000444;28;20048;-64
2021/06/04 13:32:25;;;;;;;16.63;12.85;;;;;;;;;;5031112;28;20046;-64
2021/06/04 13:35:16;;;;;;;13.15;10.70;;;;;;;;;;5012175;28;20046;-64
2021/06/04 13:38:02;;;;;;;12.57;10.65;;;;;;;;;;5017395;28;20131;-65
2021/06/04 13:40:47;;;;;;;13.68;12.13;;;;;;;;;;5028832;28;20047;-64
2021/06/04 13:43:38;;;;;;;14.25;11.18;;;;;;;;;;5030756;28;20126;-64
2021/06/04 13:46:26;;;;;;;13.48;10.88;;;;;;;;;;5030613;28;20103;-64
2021/06/04 13:49:14;;;;;;;17.25;15.38;;;;;;;;;;5024299;28;20120;-64
2021/06/04 13:52:04;;;;;;;13.27;10.88;;;;;;;;;;5016319;28;20061;-65
2021/06/04 13:54:50;;;;;;;16.17;14.32;;;;;;;;;;5030272;28;20413;-64
2021/06/04 13:57:36;;;;;;;15.30;13.90;;;;;;;;;;5031594;28;20070;-64
2021/06/04 14:00:27;;;;;;;17.33;15.55;;;;;;;;;;5031087;28;20095;-64
2021/06/04 14:03:19;;;;;;;17.70;16.00;;;;;;;;;;5018448;28;20060;-65
2021/06/04 14:06:08;;;;;;;15.63;12.85;;;;;;;;;;5030467;28;20518;-64
2021/06/04 14:08:57;;;;;;;15.15;13.75;;;;;;;;;;5030711;28;20131;-64
2021/06/04 14:11:48;;;;;;;13.20;11.90;;;;;;;;;;5032404;28;20049;-63
2021/06/04 14:14:34;;;;;;;16.27;14.55;;;;;;;;;;5009851;28;20054;-65
2021/06/04 14:17:19;;;;;;;13.48;12.15;;;;;;;;;;4997872;28;20049;-65
2021/06/04 14:20:08;;;;;;;13.73;11.32;;;;;;;;;;5011301;28;20511;-65
2021/06/04 14:22:53;;;;;;;13.70;11.65;;;;;;;;;;5011296;28;20131;-64
2021/06/04 14:25:38;;;;;;;11.23;10.00;;;;;;;;;;5011824;28;20100;-64
2021/06/04 14:28:24;;;;;;;11.15;10.00;;;;;;;;;;5010818;28;20108;-64
2021/06/04 14:31:09;;;;;;;10.30;8.90;;;;;;;;;;4995784;28;20068;-64
2021/06/04 14:33:55;;;;;;;10.85;8.75;;;;;;;;;;5005615;28;20056;-64
2021/06/04 14:36:40;;;;;;;10.48;7.70;;;;;;;;;;5007703;28;20050;-64
2021/06/04 14:39:29;;;;;;;9.95;7.40;;;;;;;;;;5011388;28;20062;-64
2021/06/04 14:42:19;;;;;;;7.93;6.43;;;;;;;;;;5011073;28;20081;-64
2021/06/04 14:45:04;;;;;;;13.90;6.38;;;;;;;;;;4995771;28;20053;-64
2021/06/04 14:47:49;;;;;;;8.13;6.10;;;;;;;;;;5011123;28;20054;-65
2021/06/04 14:50:35;;;;;;;6.85;6.15;;;;;;;;;;5010875;28;20057;-64
2021/06/04 14:53:20;;;;;;;7.35;6.18;;;;;;;;;;4997485;28;20058;-65
2021/06/04 14:56:07;;;;;;;9.45;5.80;;;;;;;;;;5011473;28;20511;-64
2021/06/04 14:58:52;;;;;;;6.50;5.03;;;;;;;;;;5011076;28;20052;-65
2021/06/04 15:01:38;;;;;;;7.68;4.80;;;;;;;;;;5010673;28;20058;-65
2021/06/04 15:04:25;;;;;;;5.85;4.82;;;;;;;;;;5011034;28;20037;-65
2021/06/04 15:07:10;;;;;;;5.85;4.97;;;;;;;;;;4991817;28;20508;-64
2021/06/04 15:09:56;;;;;;;7.10;4.55;;;;;;;;;;4976296;28;20061;-65
2021/06/04 15:12:42;;;;;;;5.90;5.30;;;;;;;;;;4994287;28;20057;-64
2021/06/04 15:15:28;;;;;;;12.68;9.68;;;;;;;;;;4995283;28;20181;-65
2021/06/04 15:18:13;;;;;;;10.82;8.35;;;;;;;;;;4995352;28;20053;-64
2021/06/04 15:21:01;;;;;;;10.00;8.40;;;;;;;;;;4995163;28;20053;-64
2021/06/04 15:23:47;;;;;;;7.65;5.72;;;;;;;;;;4995054;28;20087;-64
2021/06/04 15:26:32;;;;;;;11.68;7.97;;;;;;;;;;4995189;28;20054;-64
2021/06/04 15:29:17;;;;;;;8.23;7.53;;;;;;;;;;4995295;28;20117;-64
2021/06/04 15:32:05;;;;;;;10.02;9.02;;;;;;;;;;4995037;28;20045;-64
2021/06/04 15:34:51;;;;;;;9.05;8.15;;;;;;;;;;4995264;28;20100;-64
2021/06/04 15:37:37;;;;;;;9.65;6.90;;;;;;;;;;4995214;28;20051;-64
2021/06/04 15:40:22;;;;;;;9.50;8.45;;;;;;;;;;4994739;28;20049;-64
2021/06/04 15:43:08;;;;;;;11.73;9.02;;;;;;;;;;4995082;28;20108;-65
2021/06/04 15:45:53;;;;;;;9.70;7.30;;;;;;;;;;4994926;28;20693;-65
2021/06/04 15:48:38;;;;;;;8.65;7.57;;;;;;;;;;4980286;28;20136;-65
2021/06/04 15:51:24;;;;;;;8.75;7.95;;;;;;;;;;4994686;28;20049;-65
2021/06/04 15:54:09;;;;;;;10.75;9.20;;;;;;;;;;4994890;28;20057;-65
2021/06/04 15:56:55;;;;;;;10.02;8.15;;;;;;;;;;4994624;28;20456;-65
2021/06/04 15:59:44;;;;;;;9.32;8.35;;;;;;;;;;4994823;28;20060;-64
2021/06/04 16:02:29;;;;;;;7.45;6.75;;;;;;;;;;4994656;28;20050;-64
2021/06/04 16:05:16;;;;;;;10.65;8.40;;;;;;;;;;4994440;28;20060;-64
2021/06/04 16:08:01;;;;;;;9.77;7.45;;;;;;;;;;4994661;28;20058;-64
2021/06/04 16:10:46;;;;;;;10.93;8.05;;;;;;;;;;4994189;28;20190;-64
2021/06/04 16:13:32;;;;;;;9.73;8.88;;;;;;;;;;4998985;28;20101;-64
2021/06/04 16:16:18;;;;;;;12.57;7.78;;;;;;;;;;5012121;28;20049;-64
2021/06/04 16:19:04;;;;;;;8.50;7.53;;;;;;;;;;5013935;28;20053;-64
2021/06/04 16:21:49;;;;;;;10.02;9.02;;;;;;;;;;5013402;28;20054;-64
2021/06/04 16:24:34;;;;;;;11.63;10.32;;;;;;;;;;5013844;28;20061;-64
2021/06/04 16:27:20;;;;;;;13.73;12.27;;;;;;;;;;5006493;28;20482;-64
2021/06/04 16:30:06;;;;;;;15.98;14.52;;;;;;;;;;5007228;28;20049;-64